KSIY/SIY METAR and TAF weather

Enter ICAO airport designator
Station Type Date Time Source
KSIY METAR 2020/11/25 21:53 UTC NOAA

KSIY 252153Z AUTO 02006KT 10SM FEW037 SCT047 BKN065 07/01 A3023 RMK AO2 RAB22E43 SLP255 P0000 T00720006


Station Type Date Time Source
KSIY Decoded METAR 2020/11/25 21:53 UTC NOAA

MONTAGUE SISKIYOU COUNTY, CA, United States (KSIY) 41-46N 122-28W
Nov 25, 2020 - 04:53 PM EST / 2020.11.25 2153 UTC
Wind: from the NNE (020 degrees) at 7 MPH (6 KT):0
Visibility: 10 mile(s):0
Sky conditions: mostly cloudy
Precipitation last hour: A trace
Temperature: 45.0 F (7.2 C)
Dew Point: 33.1 F (0.6 C)
Relative Humidity: 62%
Pressure (altimeter): 30.23 in. Hg (1023 hPa)
ob: KSIY 252153Z AUTO 02006KT 10SM FEW037 SCT047 BKN065 07/01 A3023 RMK AO2 RAB22E43 SLP255 P0000 T00720006
cycle: 22

Station Type Date Time Source
KSIY TAF UTC NOAA

Error!

Example: see airport list